Time;durP1;ratioP1;P1;durP2;ratioP2;P2;SDS_P1;SDS_P2;PMS_P1;PMS_P2;Temp;Humidity;BMP_temperature;BMP_pressure;BME280_temperature;BME280_humidity;BME280_pressure;Samples;Min_cycle;Max_cycle;Signal;HPM_P1;HPM_P2
2023/04/04 00:00:08;;;;;;;5.32;3.15;;;;;;;7.34;52.32;98754.44;5107580;28;20036;-51
2023/04/04 00:02:34;;;;;;;5.63;3.08;;;;;;;7.36;52.42;98751.66;5107635;28;20024;-51
2023/04/04 00:05:00;;;;;;;2.92;2.63;;;;;;;7.40;52.10;98758.97;5091889;28;20028;-51
2023/04/04 00:07:26;;;;;;;5.05;2.67;;;;;;;7.52;52.39;98758.50;5092050;28;20100;-51
2023/04/04 00:09:51;;;;;;;6.72;3.00;;;;;;;7.62;51.78;98759.06;5091910;28;20053;-51
2023/04/04 00:12:21;;;;;;;4.15;2.92;;;;;;;7.70;51.49;98756.34;5107549;28;20496;-51
2023/04/04 00:14:47;;;;;;;6.68;3.03;;;;;;;7.68;51.12;98754.91;5092173;28;20031;-52
2023/04/04 00:17:13;;;;;;;4.38;3.72;;;;;;;7.60;51.58;98756.63;5107449;28;20504;-51
2023/04/04 00:19:38;;;;;;;6.65;3.03;;;;;;;7.51;51.52;98749.88;5107427;28;20066;-52
2023/04/04 00:22:04;;;;;;;11.18;3.17;;;;;;;7.41;52.36;98746.72;5091807;28;20106;-51
2023/04/04 00:24:30;;;;;;;3.90;3.08;;;;;;;7.37;52.05;98748.84;5092043;28;20486;-51
2023/04/04 00:26:56;;;;;;;4.63;3.20;;;;;;;7.32;52.53;98743.34;5107156;28;20189;-51
2023/04/04 00:29:21;;;;;;;8.52;3.10;;;;;;;7.23;52.92;98739.22;5094734;28;20103;-51
2023/04/04 00:31:47;;;;;;;5.75;3.20;;;;;;;7.18;52.95;98744.13;5111664;28;20382;-51
2023/04/04 00:34:13;;;;;;;4.32;3.15;;;;;;;7.14;53.88;98746.31;5111490;28;20023;-51
2023/04/04 00:36:38;;;;;;;3.47;3.00;;;;;;;7.09;53.81;98742.59;5111690;28;20485;-51
2023/04/04 00:39:04;;;;;;;5.68;3.28;;;;;;;7.06;53.69;98748.16;5095604;28;20103;-51
2023/04/04 00:41:30;;;;;;;9.07;3.45;;;;;;;7.03;54.30;98744.13;5111266;28;20455;-52
2023/04/04 00:43:56;;;;;;;6.72;3.10;;;;;;;7.02;53.40;98739.06;5095815;28;20412;-52
2023/04/04 00:46:23;;;;;;;4.65;3.60;;;;;;;6.94;53.85;98740.78;5111160;28;20375;-51
2023/04/04 00:48:50;;;;;;;5.65;3.40;;;;;;;6.93;54.32;98739.13;5095347;28;20025;-51
2023/04/04 00:51:16;;;;;;;9.80;3.47;;;;;;;6.87;54.63;98734.63;5110999;28;20031;-51
2023/04/04 00:53:45;;;;;;;4.88;3.45;;;;;;;6.83;54.70;98735.16;5111074;28;20023;-51
2023/04/04 00:56:12;;;;;;;8.13;3.20;;;;;;;6.80;54.67;98729.28;5095290;28;20024;-51
2023/04/04 00:58:38;;;;;;;6.75;3.85;;;;;;;6.83;54.83;98737.75;5110909;28;20101;-51
2023/04/04 01:01:04;;;;;;;4.55;3.10;;;;;;;6.79;55.27;98735.47;5110824;28;20485;-51
2023/04/04 01:03:31;;;;;;;5.50;3.35;;;;;;;6.76;55.34;98737.63;5110860;28;20524;-51
2023/04/04 01:05:57;;;;;;;10.15;3.40;;;;;;;6.72;54.71;98736.34;5095077;28;20509;-51
2023/04/04 01:08:27;;;;;;;4.07;3.63;;;;;;;6.76;55.46;98732.41;5093686;28;20043;-51
2023/04/04 01:10:52;;;;;;;4.57;3.30;;;;;;;6.77;55.44;98734.84;5076906;28;20032;-50
2023/04/04 01:13:18;;;;;;;5.90;3.63;;;;;;;6.83;54.95;98735.94;5110938;28;20028;-50
2023/04/04 01:15:44;;;;;;;7.55;3.15;;;;;;;6.92;54.92;98732.31;5110620;28;20032;-50
2023/04/04 01:18:13;;;;;;;5.53;3.08;;;;;;;6.93;54.90;98738.31;5110968;28;20028;-50
2023/04/04 01:20:51;;;;;;;5.63;3.45;;;;;;;6.92;54.57;98731.47;5094844;28;20016;-50
2023/04/04 01:23:18;;;;;;;7.50;4.65;;;;;;;6.97;55.11;98737.78;5110791;28;20039;-49
2023/04/04 01:25:46;;;;;;;6.88;3.58;;;;;;;6.99;54.74;98733.22;5109986;28;20443;-50
2023/04/04 01:28:12;;;;;;;4.95;3.33;;;;;;;7.11;54.57;98733.59;5094695;28;20028;-50
2023/04/04 01:30:40;;;;;;;5.70;3.42;;;;;;;7.14;54.26;98725.44;5110417;28;20051;-50
2023/04/04 01:33:19;;;;;;;5.13;3.55;;;;;;;7.12;54.40;98721.34;5110260;28;20105;-50
2023/04/04 01:36:16;;;;;;;6.13;3.47;;;;;;;7.02;54.07;98728.63;5110264;28;20024;-48
2023/04/04 01:38:59;;;;;;;6.45;3.83;;;;;;;6.99;54.28;98720.16;5110207;28;20050;-50
2023/04/04 01:41:26;;;;;;;8.23;3.45;;;;;;;6.97;54.06;98721.34;5109324;28;20035;-51
2023/04/04 01:43:52;;;;;;;8.63;4.07;;;;;;;6.99;54.78;98721.97;5094508;28;20047;-49
2023/04/04 01:46:18;;;;;;;7.82;3.75;;;;;;;6.98;54.03;98723.78;5093331;28;20036;-50
2023/04/04 01:48:45;;;;;;;9.02;4.10;;;;;;;6.91;54.84;98725.44;5094291;28;20093;-50
2023/04/04 01:51:12;;;;;;;7.07;3.50;;;;;;;6.83;54.26;98722.91;5093066;28;20036;-50
2023/04/04 01:53:38;;;;;;;5.47;3.50;;;;;;;6.81;53.96;98730.09;5076193;28;20031;-49
2023/04/04 01:56:04;;;;;;;14.93;3.85;;;;;;;6.75;54.46;98721.16;5109839;28;20032;-49
2023/04/04 01:58:30;;;;;;;6.57;3.67;;;;;;;6.76;55.11;98725.41;5094108;28;20016;-49
2023/04/04 02:00:56;;;;;;;7.00;3.58;;;;;;;6.73;54.49;98717.13;5109952;28;20038;-50
2023/04/04 02:03:22;;;;;;;4.68;3.88;;;;;;;6.66;54.56;98724.84;5109717;28;20390;-50
2023/04/04 02:05:48;;;;;;;6.57;3.20;;;;;;;6.58;55.34;98725.69;5109786;28;20038;-50
2023/04/04 02:08:14;;;;;;;13.20;3.75;;;;;;;6.63;55.13;98724.38;5092579;28;20032;-50
2023/04/04 02:10:40;;;;;;;8.20;6.60;;;;;;;6.64;55.36;98734.63;5094172;28;20028;-50
2023/04/04 02:13:05;;;;;;;13.27;7.15;;;;;;;6.64;55.46;98723.38;5109546;28;20398;-49
2023/04/04 02:15:33;;;;;;;33.97;24.17;;;;;;;6.67;54.87;98723.84;5093895;28;20040;-49
2023/04/04 02:17:59;;;;;;;11.27;4.22;;;;;;;6.74;55.04;98718.72;5093660;28;20044;-50
2023/04/04 02:20:24;;;;;;;6.40;4.05;;;;;;;6.72;54.99;98725.91;5093710;28;20067;-50
2023/04/04 02:22:55;;;;;;;6.45;3.53;;;;;;;6.69;55.08;98724.47;5092470;28;20153;-50
2023/04/04 02:25:22;;;;;;;6.78;3.47;;;;;;;6.65;55.43;98722.41;5093623;28;20145;-49
2023/04/04 02:27:48;;;;;;;5.38;3.28;;;;;;;6.54;55.27;98719.22;5093387;28;20037;-50
2023/04/04 02:30:14;;;;;;;6.10;2.97;;;;;;;6.49;55.08;98721.50;5109155;28;20065;-50
2023/04/04 02:32:40;;;;;;;5.57;3.30;;;;;;;6.42;54.58;98725.81;5093529;28;20028;-50
2023/04/04 02:35:06;;;;;;;7.15;3.33;;;;;;;6.39;54.48;98724.34;5093485;28;20073;-50
2023/04/04 02:37:32;;;;;;;5.68;3.53;;;;;;;6.42;55.04;98724.97;5093349;28;20024;-50
2023/04/04 02:39:57;;;;;;;4.97;3.75;;;;;;;6.36;55.21;98723.91;5093719;28;20035;-50
2023/04/04 02:42:23;;;;;;;8.85;3.80;;;;;;;6.34;54.49;98718.03;5108977;28;20524;-49
2023/04/04 02:44:49;;;;;;;3.97;2.83;;;;;;;6.27;54.70;98717.09;5093233;28;20056;-49
2023/04/04 02:47:15;;;;;;;7.22;3.60;;;;;;;6.30;55.18;98720.19;5108784;28;20028;-49
2023/04/04 02:49:41;;;;;;;4.93;2.95;;;;;;;6.34;55.18;98720.66;5093064;28;20035;-50
2023/04/04 02:52:07;;;;;;;6.50;3.35;;;;;;;6.36;54.63;98719.50;5108265;28;20024;-50
2023/04/04 02:54:33;;;;;;;3.90;3.17;;;;;;;6.44;54.30;98723.84;5093044;28;20510;-50
2023/04/04 02:56:59;;;;;;;7.13;3.72;;;;;;;6.44;54.82;98728.22;5108678;28;20027;-49
2023/04/04 02:59:24;;;;;;;5.00;3.65;;;;;;;6.29;53.93;98718.53;5108673;28;20508;-50
2023/04/04 03:01:53;;;;;;;6.32;3.40;;;;;;;6.19;54.55;98728.38;5108622;28;20031;-49
2023/04/04 03:04:19;;;;;;;6.88;3.40;;;;;;;6.13;54.68;98723.84;5091608;28;20024;-50
2023/04/04 03:06:47;;;;;;;4.70;3.30;;;;;;;6.10;55.11;98729.41;5092849;28;20034;-49
2023/04/04 03:09:13;;;;;;;4.70;3.55;;;;;;;6.13;54.75;98726.44;5092016;28;20156;-49
2023/04/04 03:11:39;;;;;;;4.65;3.08;;;;;;;6.15;54.66;98724.47;5092767;28;20036;-49
2023/04/04 03:14:05;;;;;;;4.80;3.40;;;;;;;6.15;54.71;98732.31;5092700;28;20436;-49
2023/04/04 03:16:31;;;;;;;6.00;3.78;;;;;;;6.13;55.31;98731.66;5108289;28;20027;-50
2023/04/04 03:18:57;;;;;;;7.75;3.83;;;;;;;6.10;55.18;98730.22;5092708;28;20019;-49
2023/04/04 03:21:22;;;;;;;6.60;3.80;;;;;;;6.13;55.29;98723.84;5092474;28;20103;-49
2023/04/04 03:23:48;;;;;;;5.30;3.40;;;;;;;6.13;54.73;98723.84;5092527;28;20103;-50
2023/04/04 03:26:14;;;;;;;7.05;3.35;;;;;;;6.05;54.73;98718.69;5092391;28;20471;-50
2023/04/04 03:28:39;;;;;;;8.45;3.92;;;;;;;5.96;55.12;98725.72;5092421;28;20410;-50
2023/04/04 03:31:06;;;;;;;8.80;3.65;;;;;;;5.94;55.51;98725.06;5107952;28;20051;-49
2023/04/04 03:33:36;;;;;;;6.03;3.30;;;;;;;5.87;55.19;98714.47;5108366;28;20487;-50
2023/04/04 03:36:09;;;;;;;8.50;3.80;;;;;;;5.89;55.87;98717.72;5108047;28;20024;-49
2023/04/04 03:38:35;;;;;;;6.68;3.58;;;;;;;5.86;55.61;98720.69;5092383;28;20028;-50
2023/04/04 03:41:04;;;;;;;8.25;3.47;;;;;;;5.84;55.39;98720.03;5092163;28;20052;-49
2023/04/04 03:43:31;;;;;;;6.53;3.15;;;;;;;5.82;55.56;98727.22;5107909;28;20093;-49
2023/04/04 03:46:04;;;;;;;9.63;3.55;;;;;;;5.89;55.34;98719.53;5107887;28;20482;-49
2023/04/04 03:48:30;;;;;;;7.45;3.97;;;;;;;5.93;55.23;98710.38;5092178;28;20031;-49
2023/04/04 03:50:57;;;;;;;6.30;3.92;;;;;;;5.85;55.61;98720.84;5107860;28;20032;-50
2023/04/04 03:53:24;;;;;;;4.90;2.97;;;;;;;5.83;55.82;98723.63;5092401;28;20032;-50
2023/04/04 03:55:50;;;;;;;10.82;3.92;;;;;;;5.86;55.47;98730.28;5092015;28;20027;-49
2023/04/04 03:58:15;;;;;;;6.82;4.10;;;;;;;5.92;55.89;98724.41;5107715;28;20114;-49
2023/04/04 04:00:41;;;;;;;6.32;3.55;;;;;;;5.95;55.78;98730.09;5091995;28;20108;-49
2023/04/04 04:03:07;;;;;;;7.40;3.45;;;;;;;5.94;55.44;98733.66;5089841;28;20081;-49
2023/04/04 04:05:32;;;;;;;15.02;3.70;;;;;;;5.95;55.22;98735.31;5092035;28;20039;-50
2023/04/04 04:07:58;;;;;;;7.00;3.50;;;;;;;5.88;55.39;98739.56;5091968;28;20032;-50
2023/04/04 04:10:24;;;;;;;7.05;3.42;;;;;;;5.80;55.12;98732.59;5107635;28;20417;-50
2023/04/04 04:12:49;;;;;;;6.65;3.70;;;;;;;5.88;55.54;98725.72;5091930;28;20397;-50
2023/04/04 04:15:15;;;;;;;5.90;3.50;;;;;;;5.90;55.21;98723.78;5091847;28;20020;-50
2023/04/04 04:17:41;;;;;;;3.92;3.50;;;;;;;5.93;55.54;98732.03;5090847;28;20024;-49
2023/04/04 04:20:07;;;;;;;5.93;3.72;;;;;;;5.88;55.39;98736.94;5091818;28;20032;-50
2023/04/04 04:22:34;;;;;;;8.15;3.40;;;;;;;5.80;55.28;98729.16;5091768;28;20032;-50
2023/04/04 04:25:00;;;;;;;5.78;3.10;;;;;;;5.81;55.65;98738.59;5091869;28;20028;-49
2023/04/04 04:27:26;;;;;;;6.00;3.85;;;;;;;5.80;55.69;98732.59;5091504;28;20060;-49
2023/04/04 04:29:52;;;;;;;8.05;3.90;;;;;;;5.78;55.33;98729.34;5107520;28;20036;-49
2023/04/04 04:32:18;;;;;;;4.97;3.33;;;;;;;5.84;55.61;98737.47;5091674;28;20165;-49
2023/04/04 04:34:44;;;;;;;7.40;3.78;;;;;;;5.86;55.34;98738.09;5107371;28;20063;-50
2023/04/04 04:37:09;;;;;;;6.70;3.40;;;;;;;5.85;55.82;98741.69;5107284;28;20481;-50
2023/04/04 04:39:35;;;;;;;8.80;3.20;;;;;;;5.89;55.55;98748.19;5107317;28;20016;-49
2023/04/04 04:42:02;;;;;;;7.85;4.72;;;;;;;5.94;55.26;98751.91;5091617;28;20050;-49
2023/04/04 04:44:27;;;;;;;9.57;3.83;;;;;;;5.90;55.65;98755.03;5091680;28;20497;-50
2023/04/04 04:46:53;;;;;;;7.50;3.65;;;;;;;5.66;55.12;98759.31;5090299;28;20043;-49
2023/04/04 04:49:19;;;;;;;10.00;3.53;;;;;;;5.45;55.75;98761.63;5091430;28;20543;-49
2023/04/04 04:51:45;;;;;;;9.63;3.47;;;;;;;5.42;55.99;98756.78;5091526;28;20095;-50
2023/04/04 04:54:10;;;;;;;8.30;3.67;;;;;;;5.43;56.11;98750.56;5107264;28;20109;-50
2023/04/04 04:56:36;;;;;;;5.13;3.72;;;;;;;5.39;56.36;98750.91;5091547;28;20028;-50
2023/04/04 04:59:02;;;;;;;6.90;3.72;;;;;;;5.36;56.05;98758.25;5073646;28;20020;-50
2023/04/04 05:01:28;;;;;;;8.55;3.88;;;;;;;5.36;56.02;98766.03;5091511;28;20020;-49
2023/04/04 05:03:54;;;;;;;5.00;4.00;;;;;;;5.35;55.89;98767.84;5091358;28;20027;-50
2023/04/04 05:06:20;;;;;;;10.32;3.78;;;;;;;5.45;55.97;98770.25;5091309;28;20024;-50
2023/04/04 05:08:46;;;;;;;7.43;4.00;;;;;;;5.46;55.59;98763.28;5091319;28;20028;-49
2023/04/04 05:11:11;;;;;;;9.57;3.85;;;;;;;5.42;56.12;98767.19;5091263;28;20089;-49
2023/04/04 05:13:37;;;;;;;6.25;4.50;;;;;;;5.38;55.92;98770.09;5091356;28;20020;-49
2023/04/04 05:16:03;;;;;;;8.60;4.35;;;;;;;5.33;55.87;98769.81;5095144;28;20050;-50
2023/04/04 05:18:29;;;;;;;8.60;3.60;;;;;;;5.24;56.18;98770.78;5111000;28;20127;-50
2023/04/04 05:20:55;;;;;;;5.35;4.05;;;;;;;5.16;56.92;98771.59;5093642;28;20540;-49
2023/04/04 05:23:23;;;;;;;7.68;3.72;;;;;;;5.20;57.07;98775.47;5094922;28;20389;-49
2023/04/04 05:25:52;;;;;;;9.68;3.58;;;;;;;5.31;56.28;98776.13;5093301;28;20087;-49
2023/04/04 05:28:22;;;;;;;8.52;3.55;;;;;;;5.33;56.23;98781.97;5094681;28;20396;-50
2023/04/04 05:30:48;;;;;;;7.45;3.78;;;;;;;5.36;56.32;98784.25;5094626;28;20027;-49
2023/04/04 05:33:13;;;;;;;11.90;3.80;;;;;;;5.71;56.12;98782.25;5094548;28;20452;-49
2023/04/04 05:35:40;;;;;;;7.57;4.00;;;;;;;6.50;55.25;98779.69;5110469;28;20397;-50
2023/04/04 05:38:06;;;;;;;7.35;3.70;;;;;;;7.25;53.78;98783.41;5094423;28;20012;-49
2023/04/04 05:40:32;;;;;;;11.35;4.55;;;;;;;7.87;51.90;98783.13;5094482;28;20073;-49
2023/04/04 05:43:00;;;;;;;7.35;3.88;;;;;;;8.54;50.22;98781.34;5094476;28;20027;-49
2023/04/04 05:45:26;;;;;;;9.48;4.40;;;;;;;9.13;48.48;98786.34;5093395;28;20024;-50
2023/04/04 05:47:52;;;;;;;10.43;3.55;;;;;;;9.75;47.02;98782.16;5094296;28;20516;-50
2023/04/04 05:50:17;;;;;;;10.18;3.47;;;;;;;10.27;45.95;98774.78;5094267;28;20031;-49
2023/04/04 05:52:45;;;;;;;7.47;3.65;;;;;;;10.88;45.03;98778.41;5109921;28;20035;-50
2023/04/04 05:55:11;;;;;;;12.88;4.07;;;;;;;11.52;43.20;98780.44;5094106;28;20028;-50
2023/04/04 05:57:37;;;;;;;10.57;4.03;;;;;;;11.92;42.27;98783.03;5109850;28;20027;-50
2023/04/04 06:00:06;;;;;;;10.38;4.15;;;;;;;12.19;41.29;98783.75;5094065;28;20374;-50
2023/04/04 06:02:32;;;;;;;8.85;3.67;;;;;;;12.63;39.94;98781.31;5109776;28;20024;-50
2023/04/04 06:04:57;;;;;;;13.85;4.50;;;;;;;12.79;39.08;98785.28;5092718;28;20371;-50
2023/04/04 06:07:23;;;;;;;12.35;3.95;;;;;;;13.10;38.68;98787.09;5093840;28;20024;-50
2023/04/04 06:09:49;;;;;;;5.70;3.13;;;;;;;13.28;37.65;98780.25;5093908;28;20107;-50
2023/04/04 06:12:15;;;;;;;9.10;2.90;;;;;;;13.33;37.43;98788.38;5094029;28;20051;-50
2023/04/04 06:14:41;;;;;;;12.20;3.20;;;;;;;13.29;37.25;98782.72;5093794;28;20489;-50
2023/04/04 06:17:06;;;;;;;10.73;3.63;;;;;;;13.21;37.14;98790.06;5093717;28;20035;-50
2023/04/04 06:19:32;;;;;;;8.32;3.35;;;;;;;13.18;37.26;98794.75;5109345;28;20062;-50
2023/04/04 06:21:58;;;;;;;8.07;3.53;;;;;;;13.09;37.79;98796.03;5092442;28;20023;-50
2023/04/04 06:24:23;;;;;;;5.65;3.33;;;;;;;12.89;37.69;98803.25;5093867;28;20080;-50
2023/04/04 06:26:50;;;;;;;10.10;3.47;;;;;;;12.53;38.02;98808.09;5092551;28;20097;-50
2023/04/04 06:29:17;;;;;;;5.10;2.80;;;;;;;12.46;38.27;98802.06;5093389;28;20107;-50
2023/04/04 06:31:43;;;;;;;10.45;3.30;;;;;;;12.88;38.04;98805.09;5109165;28;20046;-50
2023/04/04 06:34:08;;;;;;;10.18;3.67;;;;;;;13.58;36.71;98790.97;5093285;28;20023;-50
2023/04/04 06:36:34;;;;;;;9.50;3.92;;;;;;;13.62;36.36;98796.63;5109065;28;20024;-50
2023/04/04 06:39:00;;;;;;;6.45;2.92;;;;;;;13.52;36.61;98797.97;5092101;28;20054;-50
2023/04/04 06:41:26;;;;;;;7.70;2.67;;;;;;;13.73;36.33;98804.66;5093242;28;20027;-50
2023/04/04 06:43:52;;;;;;;7.90;3.15;;;;;;;14.33;35.10;98797.94;5108909;28;20031;-50
2023/04/04 06:46:17;;;;;;;9.27;3.30;;;;;;;14.54;34.55;98797.44;5091910;28;20032;-50
2023/04/04 06:48:43;;;;;;;11.20;3.42;;;;;;;15.47;33.08;98797.13;5093104;28;20057;-50
2023/04/04 06:51:10;;;;;;;76.90;6.82;;;;;;;16.24;31.92;98793.50;5108722;28;20111;-50
2023/04/04 06:53:36;;;;;;;59.33;5.75;;;;;;;15.68;32.33;98788.63;5093090;28;20446;-50
2023/04/04 06:56:03;;;;;;;16.52;3.22;;;;;;;16.19;31.76;98794.22;5091723;28;20023;-50
2023/04/04 06:58:29;;;;;;;8.57;3.17;;;;;;;16.98;30.38;98793.59;5091795;28;20036;-49
2023/04/04 07:00:58;;;;;;;18.63;3.17;;;;;;;17.47;29.66;98799.16;5092932;28;20039;-48
2023/04/04 07:03:25;;;;;;;4.10;3.05;;;;;;;16.96;29.26;98800.97;5092816;28;20024;-49
2023/04/04 07:05:51;;;;;;;6.80;2.83;;;;;;;15.86;30.67;98803.59;5092804;28;20024;-48
2023/04/04 07:08:16;;;;;;;4.45;2.65;;;;;;;16.10;31.14;98800.94;5092687;28;20142;-48
2023/04/04 07:10:42;;;;;;;8.45;2.78;;;;;;;16.81;29.87;98798.03;5092780;28;20111;-48
2023/04/04 07:13:08;;;;;;;7.55;2.63;;;;;;;16.90;29.57;98809.88;5092613;28;20028;-48
2023/04/04 07:15:35;;;;;;;7.38;2.63;;;;;;;17.49;28.99;98805.03;5092654;28;20496;-48
2023/04/04 07:18:00;;;;;;;6.00;2.42;;;;;;;17.63;28.45;98802.06;5092544;28;20023;-48
2023/04/04 07:20:27;;;;;;;7.25;3.05;;;;;;;18.23;27.54;98808.44;5092530;28;20032;-48
2023/04/04 07:22:53;;;;;;;14.43;3.38;;;;;;;18.44;27.77;98802.31;5108165;28;20028;-48
2023/04/04 07:25:19;;;;;;;6.20;2.63;;;;;;;18.30;27.46;98806.41;5092467;28;20374;-48
2023/04/04 07:27:45;;;;;;;6.05;3.13;;;;;;;18.62;26.93;98803.84;5090911;28;20048;-48
2023/04/04 07:30:12;;;;;;;5.65;2.80;;;;;;;19.32;26.77;98801.31;5092323;28;20405;-48
2023/04/04 07:32:38;;;;;;;11.55;3.00;;;;;;;19.10;26.57;98802.19;5091020;28;20036;-48
2023/04/04 07:35:07;;;;;;;4.03;2.65;;;;;;;18.62;27.22;98809.16;5092297;28;20032;-48
2023/04/04 07:37:35;;;;;;;8.85;2.83;;;;;;;19.11;26.84;98810.97;5108228;28;20071;-48
2023/04/04 07:40:01;;;;;;;4.43;2.72;;;;;;;19.41;25.72;98807.75;5092467;28;20032;-48
2023/04/04 07:42:29;;;;;;;5.20;2.78;;;;;;;18.77;26.99;98816.47;5092160;28;20508;-48
2023/04/04 07:44:55;;;;;;;6.25;3.13;;;;;;;19.12;26.58;98812.59;5092155;28;20434;-48
2023/04/04 07:47:21;;;;;;;11.63;3.33;;;;;;;19.02;26.68;98813.31;5108073;28;20062;-48
2023/04/04 07:49:46;;;;;;;6.43;2.63;;;;;;;19.22;26.40;98810.03;5107668;28;20409;-48
2023/04/04 07:52:12;;;;;;;6.88;2.67;;;;;;;19.41;26.05;98806.97;5092057;28;20058;-49
2023/04/04 07:54:41;;;;;;;8.23;2.92;;;;;;;19.33;26.24;98801.03;5092115;28;20047;-48
2023/04/04 07:57:08;;;;;;;13.13;3.60;;;;;;;19.46;26.21;98807.00;5091949;28;20035;-49
2023/04/04 07:59:35;;;;;;;12.00;3.00;;;;;;;18.30;27.34;98809.84;5091036;28;20032;-49
2023/04/04 08:02:01;;;;;;;8.95;2.60;;;;;;;18.04;27.76;98807.94;5092173;28;20023;-48
2023/04/04 08:04:26;;;;;;;5.03;2.83;;;;;;;18.60;27.55;98800.63;5092002;28;20499;-48
2023/04/04 08:06:52;;;;;;;7.93;2.72;;;;;;;19.43;26.20;98802.97;5091907;28;20028;-48
2023/04/04 08:09:18;;;;;;;6.72;2.85;;;;;;;20.06;25.21;98812.97;5107707;28;20090;-48
2023/04/04 08:11:44;;;;;;;9.15;2.85;;;;;;;19.96;25.16;98805.75;5090683;28;20059;-48
2023/04/04 08:14:12;;;;;;;10.27;3.05;;;;;;;20.12;24.69;98807.44;5091727;28;20031;-48
2023/04/04 08:16:38;;;;;;;8.25;2.70;;;;;;;20.42;24.64;98810.47;5107405;28;20111;-46
2023/04/04 08:19:05;;;;;;;8.65;2.92;;;;;;;21.77;23.60;98802.31;5091794;28;20111;-46
2023/04/04 08:21:31;;;;;;;4.88;2.45;;;;;;;22.53;22.25;98802.06;5091803;28;20073;-46
2023/04/04 08:23:57;;;;;;;13.30;3.35;;;;;;;22.51;22.54;98806.09;5091749;28;20397;-46
2023/04/04 08:26:22;;;;;;;11.95;3.38;;;;;;;21.77;22.80;98813.00;5091584;28;20258;-45
2023/04/04 08:28:49;;;;;;;7.25;3.03;;;;;;;19.43;24.72;98813.63;5091711;28;20030;-45
2023/04/04 08:31:14;;;;;;;8.00;2.97;;;;;;;18.52;26.19;98828.44;5091603;28;20107;-46
2023/04/04 08:33:40;;;;;;;7.50;2.83;;;;;;;18.14;27.06;98819.50;5091746;28;20102;-46
2023/04/04 08:36:06;;;;;;;5.40;2.92;;;;;;;19.11;26.04;98826.94;5091639;28;20024;-46
2023/04/04 08:38:32;;;;;;;9.02;3.17;;;;;;;20.64;24.92;98823.63;5107330;28;20026;-46
2023/04/04 08:40:58;;;;;;;8.88;2.58;;;;;;;22.06;23.11;98824.69;5107641;28;20024;-45
2023/04/04 08:43:26;;;;;;;12.00;3.38;;;;;;;22.45;22.89;98816.00;5091604;28;20032;-46
2023/04/04 08:45:53;;;;;;;7.68;2.70;;;;;;;22.16;23.24;98817.72;5091676;28;20086;-46
2023/04/04 08:48:22;;;;;;;8.77;3.47;;;;;;;23.12;22.22;98812.97;5091526;28;20161;-46
2023/04/04 08:50:48;;;;;;;10.45;3.05;;;;;;;23.36;21.50;98813.00;5095047;28;20032;-46
2023/04/04 08:53:15;;;;;;;5.30;2.78;;;;;;;23.43;21.43;98810.81;5095429;28;20055;-47
2023/04/04 08:55:42;;;;;;;6.28;3.05;;;;;;;23.57;21.96;98812.84;5095390;28;20145;-47
2023/04/04 08:58:08;;;;;;;5.55;2.55;;;;;;;24.22;20.65;98809.75;5095284;28;20024;-47
2023/04/04 09:00:33;;;;;;;3.65;2.28;;;;;;;24.67;20.50;98812.94;5095171;28;20055;-47
2023/04/04 09:03:13;;;;;;;7.35;2.70;;;;;;;23.79;20.64;98815.06;5095247;28;20032;-46
2023/04/04 09:05:40;;;;;;;11.00;3.60;;;;;;;22.14;22.39;98816.09;5095212;28;20508;-46
2023/04/04 09:08:07;;;;;;;8.73;2.92;;;;;;;23.12;21.82;98810.28;5095005;28;20032;-46
2023/04/04 09:10:34;;;;;;;8.48;2.78;;;;;;;23.22;21.63;98818.25;5110767;28;20106;-47
2023/04/04 09:13:03;;;;;;;11.93;3.00;;;;;;;23.94;21.09;98817.56;5095245;28;20450;-47
2023/04/04 09:15:30;;;;;;;12.38;3.10;;;;;;;24.37;20.14;98817.63;5094994;28;20485;-47
2023/04/04 09:17:56;;;;;;;7.28;3.00;;;;;;;23.02;20.99;98813.84;5110615;28;20032;-46
2023/04/04 09:20:39;;;;;;;4.30;2.30;;;;;;;22.28;21.93;98819.03;5110552;28;20485;-46
2023/04/04 09:23:10;;;;;;;10.90;2.70;;;;;;;21.47;22.53;98826.16;5094869;28;20107;-46
2023/04/04 09:25:36;;;;;;;8.82;3.63;;;;;;;20.26;23.62;98826.41;5094585;28;20059;-47
2023/04/04 09:28:04;;;;;;;15.15;3.40;;;;;;;20.40;24.85;98820.59;5110387;28;20028;-47
2023/04/04 09:30:34;;;;;;;6.97;4.72;;;;;;;21.80;23.40;98820.50;5094575;28;20033;-47
2023/04/04 09:33:10;;;;;;;10.07;3.10;;;;;;;22.62;22.81;98821.00;5094581;28;20052;-46
2023/04/04 09:35:38;;;;;;;7.95;2.70;;;;;;;23.30;21.39;98812.28;5094601;28;20430;-46
2023/04/04 09:38:07;;;;;;;10.55;3.00;;;;;;;23.55;21.47;98821.16;5094441;28;20020;-46
2023/04/04 09:40:36;;;;;;;7.35;2.53;;;;;;;23.73;20.28;98817.75;5094406;28;20031;-46
2023/04/04 09:43:05;;;;;;;8.80;2.97;;;;;;;22.52;21.26;98821.06;5094428;28;20059;-47
2023/04/04 09:45:34;;;;;;;8.55;2.25;;;;;;;23.60;20.87;98821.09;5094353;28;20024;-46
2023/04/04 09:48:01;;;;;;;7.28;2.75;;;;;;;25.29;19.62;98816.34;5094503;28;20089;-47
2023/04/04 09:50:29;;;;;;;5.20;2.38;;;;;;;26.25;18.27;98814.06;5093018;28;20028;-47
2023/04/04 09:52:59;;;;;;;3.33;2.10;;;;;;;24.48;19.10;98819.06;5094205;28;20028;-47
2023/04/04 09:55:33;;;;;;;9.90;2.47;;;;;;;22.45;21.26;98831.25;5094136;28;20019;-46
2023/04/04 09:58:04;;;;;;;5.68;2.83;;;;;;;20.84;22.38;98841.53;5094133;28;20027;-46
2023/04/04 10:00:37;;;;;;;7.25;2.78;;;;;;;20.40;23.81;98828.59;5109020;28;20554;-47
2023/04/04 10:03:04;;;;;;;4.93;2.70;;;;;;;22.34;22.14;98825.97;5092883;28;20024;-47
2023/04/04 10:05:30;;;;;;;3.95;2.50;;;;;;;23.53;20.48;98818.75;5094009;28;20031;-46
2023/04/04 10:07:56;;;;;;;7.03;2.85;;;;;;;22.67;20.76;98825.53;5093810;28;20486;-47
2023/04/04 10:10:22;;;;;;;5.95;2.45;;;;;;;21.35;22.36;98828.25;5092745;28;20027;-46
2023/04/04 10:12:51;;;;;;;4.38;2.53;;;;;;;21.56;23.02;98831.75;5093855;28;20023;-47
2023/04/04 10:15:17;;;;;;;11.98;2.92;;;;;;;21.55;22.80;98830.16;5092756;28;20024;-46
2023/04/04 10:17:44;;;;;;;6.20;3.10;;;;;;;21.67;22.49;98829.84;5075536;28;20603;-46
2023/04/04 10:20:11;;;;;;;7.13;2.97;;;;;;;21.61;22.61;98829.06;5093694;28;20043;-46
2023/04/04 10:22:38;;;;;;;10.25;2.55;;;;;;;20.83;22.83;98815.94;5093690;28;20500;-47
2023/04/04 10:25:05;;;;;;;5.72;3.00;;;;;;;20.00;23.43;98830.00;5093498;28;20024;-47
2023/04/04 10:27:31;;;;;;;7.00;3.13;;;;;;;19.34;24.61;98837.25;5093305;28;20044;-47
2023/04/04 10:29:58;;;;;;;6.43;3.10;;;;;;;19.31;24.85;98837.75;5092194;28;20051;-47
2023/04/04 10:32:33;;;;;;;3.55;2.55;;;;;;;19.18;25.47;98838.19;5093673;28;20032;-47
2023/04/04 10:35:09;;;;;;;7.28;2.83;;;;;;;19.20;25.74;98837.94;5093365;28;20031;-46
2023/04/04 10:37:42;;;;;;;7.93;3.35;;;;;;;20.61;24.44;98826.84;5109130;28;20512;-46
2023/04/04 10:40:12;;;;;;;5.72;3.35;;;;;;;22.92;22.43;98820.03;5109266;28;20074;-46
2023/04/04 10:42:43;;;;;;;7.40;2.80;;;;;;;25.21;20.51;98817.00;5109015;28;20051;-47
2023/04/04 10:45:09;;;;;;;7.00;2.72;;;;;;;26.05;18.41;98809.88;5093226;28;20023;-47
2023/04/04 10:47:36;;;;;;;5.55;2.65;;;;;;;24.60;19.69;98812.50;5108883;28;20055;-47
2023/04/04 10:50:09;;;;;;;8.38;2.42;;;;;;;23.04;20.91;98811.69;5093264;28;20082;-47
2023/04/04 10:52:37;;;;;;;7.15;3.00;;;;;;;21.89;21.81;98816.19;5093411;28;20103;-46
2023/04/04 10:55:08;;;;;;;10.25;2.63;;;;;;;20.80;22.75;98827.94;5092970;28;20028;-46
2023/04/04 10:57:40;;;;;;;7.45;3.05;;;;;;;19.64;24.09;98824.41;5091706;28;20093;-46
2023/04/04 11:00:08;;;;;;;5.25;2.70;;;;;;;19.15;24.46;98823.50;5092069;28;20440;-46
2023/04/04 11:02:48;;;;;;;3.80;2.42;;;;;;;19.22;24.41;98828.66;5092836;28;20039;-46
2023/04/04 11:05:46;;;;;;;5.20;2.45;;;;;;;20.49;23.78;98822.50;5092793;28;20023;-46
2023/04/04 11:08:24;;;;;;;8.65;3.30;;;;;;;20.87;22.89;98819.69;5092950;28;20477;-46
2023/04/04 11:10:54;;;;;;;6.30;2.78;;;;;;;20.39;22.79;98819.00;5091578;28;20034;-46
2023/04/04 11:13:58;;;;;;;12.57;3.88;;;;;;;19.62;24.16;98822.03;5091358;28;20489;-46
2023/04/04 11:16:24;;;;;;;7.43;3.50;;;;;;;20.62;23.35;98820.41;5092718;28;20398;-46
2023/04/04 11:18:51;;;;;;;7.05;2.50;;;;;;;22.46;22.00;98812.25;5092607;28;20016;-47
2023/04/04 11:21:23;;;;;;;8.60;3.40;;;;;;;24.38;21.17;98796.94;5092590;28;20103;-47
2023/04/04 11:23:58;;;;;;;5.55;2.70;;;;;;;24.43;19.85;98794.22;5092443;28;20035;-46
2023/04/04 11:26:26;;;;;;;6.28;2.38;;;;;;;22.53;20.23;98795.91;5107999;28;20067;-46
2023/04/04 11:28:57;;;;;;;6.82;2.50;;;;;;;20.90;21.77;98803.13;5108234;28;20034;-46
2023/04/04 11:31:26;;;;;;;9.15;2.67;;;;;;;20.99;23.20;98798.06;5092369;28;20034;-47
2023/04/04 11:34:11;;;;;;;12.98;2.90;;;;;;;22.39;22.66;98795.72;5092340;28;20019;-46
2023/04/04 11:36:37;;;;;;;11.07;2.40;;;;;;;23.72;21.24;98793.91;5092320;28;20465;-47